Stations météo

réclame
Mon MeteoGroup
Gielas, Suède (2110): Température de l'air & dewpoint: 14.06.2018 07:00:00 - 20.06.2018 07:00:00 (CEST)Gielas, Suède (2110): Vitesse du vent & gusts: 14.06.2018 07:00:00 - 20.06.2018 07:00:00 (CEST)Gielas, Suède (2110): Direction du vent: 14.06.2018 07:00:00 - 20.06.2018 07:00:00 (CEST)Gielas, Suède (2110): visibility: 14.06.2018 07:00:00 - 20.06.2018 07:00:00 (CEST)Gielas, Suède (2110): Quantités de précipitations: 14.06.2018 07:00:00 - 20.06.2018 07:00:00 (CEST)
Date & Time tt [°C] td [°C] ff [km/h] ff [knt] fx [km/h] fx [knt] dd vv [km] rr [mm]
20.06.2018 07:00:00 5,6 3,3 11 6 29 16 WSW 23 0,0
20.06.2018 06:00:00 5,4 3,9 6 3 24 13 SSW 46 0,0
20.06.2018 05:00:00 5,3 3,5 5 3 15 8 SW 33 0,0
20.06.2018 04:00:00 4,4 3,2 3 2 24 13 SSW 46 0,0
20.06.2018 03:00:00 4,6 2,9 10 5 23 12 WSW 50 0,1
20.06.2018 02:00:00 4,8 3,5 7 4 25 14 WSW 47 0,0
20.06.2018 01:00:00 5,4 3,7 12 6 32 17 WSW 50 0,1
20.06.2018 00:00:00 4,8 4,2 5 3 26 14 SW 12 0,3
19.06.2018 23:00:00 5,8 4,4 6 3 27 15 W 16 0,0
19.06.2018 22:00:00 6,7 4,0 10 5 30 16 WSW 39 0,1
19.06.2018 21:00:00 7,1 4,7 8 4 36 19 WSW 50 0,1
19.06.2018 20:00:00 8,3 3,4 17 9 41 22 WSW 50 0,0
19.06.2018 19:00:00 9,4 4,4 13 7 37 20 W 50 0,0
19.06.2018 18:00:00 10,7 5,0 13 7 46 25 W 50 0,0
19.06.2018 17:00:00 9,4 4,8 13 7 37 20 W 47 0,0
19.06.2018 16:00:00 11,2 3,2 16 9 37 20 W 50 0,0
19.06.2018 15:00:00 10,7 3,2 8 4 30 16 W 40 0,0
19.06.2018 14:00:00 9,5 4,1 11 6 31 17 WNW 35 0,0
19.06.2018 13:00:00 8,6 5,0 10 6 32 17 WNW 41 0,0
19.06.2018 12:00:00 7,2 4,8 13 7 35 19 WNW 50 0,0
19.06.2018 11:00:00 7,0 6,1 9 5 23 13 WNW 50 0,1
19.06.2018 10:00:00 5,6 5,2 5 3 15 8 WNW 13 0,8
19.06.2018 09:00:00 3,9 3,6 5 3 16 9 W 15 2,7
19.06.2018 08:00:00 3,9 3,6 6 4 14 8 W 4,1 3,0
19.06.2018 07:00:00 4,4 4,1 6 3 21 12 W 6 2,2
19.06.2018 06:00:00 4,6 4,0 9 5 26 14 W 22 0,2
19.06.2018 05:00:00 5,3 4,6 11 6 36 19 WNW 9 2,1
19.06.2018 04:00:00 7,4 7,4 4 2 7 4 WSW 6 0,8
19.06.2018 03:00:00 7,1 7,1 3 1 5 3 SSW 16 0,0
19.06.2018 02:00:00 7,6 7,6 4 2 7 4 ENE 15 0,0
19.06.2018 01:00:00 - - - - - - - - -
19.06.2018 00:00:00 8,9 8,9 2 1 4 2 NNW 9 0,2
18.06.2018 23:00:00 9,3 9,2 2 1 6 4 WNW 19 0,0
18.06.2018 22:00:00 9,6 9,1 3 2 13 7 W 50 0,1
18.06.2018 21:00:00 10,0 8,9 8 4 23 12 S 16 1,0
18.06.2018 20:00:00 12,1 8,6 5 3 16 9 S 26 0,0
18.06.2018 19:00:00 13,0 7,0 4 2 10 5 E 50 0,0
18.06.2018 18:00:00 13,9 7,0 5 3 12 7 E 50 0,0
18.06.2018 17:00:00 13,2 7,2 4 2 15 8 ESE 50 0,0
18.06.2018 16:00:00 13,5 6,6 6 3 28 15 WSW 50 0,0
18.06.2018 15:00:00 13,2 7,4 9 5 27 14 WNW 48 0,0
18.06.2018 14:00:00 11,6 8,3 6 4 20 11 W 50 0,0
18.06.2018 13:00:00 9,5 8,3 8 5 24 13 W 14 0,0
18.06.2018 12:00:00 10,3 7,9 8 4 16 9 W 50 0,0
18.06.2018 11:00:00 9,5 7,9 2 1 6 3 S 47 0,1
18.06.2018 10:00:00 8,9 6,9 1 1 5 3 W 34 0,1
18.06.2018 09:00:00 8,6 7,2 2 1 4 2 ENE 49 0,0
18.06.2018 08:00:00 8,5 7,4 2 1 8 4 NNE 45 0,0
18.06.2018 07:00:00 8,5 7,7 1 1 6 4 N 39 0,0
18.06.2018 06:00:00 7,8 7,5 4 2 8 4 NE 23 0,0
18.06.2018 05:00:00 7,5 7,4 4 2 8 5 NE 14 0,5
18.06.2018 04:00:00 7,3 7,2 5 3 7 4 NE 10 0,9
18.06.2018 03:00:00 7,5 6,9 3 2 15 8 ESE 12 0,4
18.06.2018 02:00:00 7,7 7,4 3 2 16 8 N 13 0,9
18.06.2018 01:00:00 8,1 7,8 4 2 8 4 NNE 8 0,4
18.06.2018 00:00:00 9,4 7,3 5 3 24 13 E 50 0,0
17.06.2018 23:00:00 9,8 7,2 9 5 22 12 S 44 0,0
17.06.2018 22:00:00 10,2 7,3 10 5 24 13 SSE 50 0,1
17.06.2018 21:00:00 10,2 8,1 8 4 24 13 S 43 0,1
17.06.2018 20:00:00 10,1 7,9 9 5 30 16 S 17 0,3
17.06.2018 19:00:00 10,4 7,5 11 6 31 17 SSE 16 0,1
17.06.2018 18:00:00 10,5 8,6 7 4 36 19 SSE 46 0,8
17.06.2018 17:00:00 10,4 8,0 13 7 31 17 S 16 0,4
17.06.2018 16:00:00 10,5 7,2 9 5 35 19 SSE 15 0,4
17.06.2018 15:00:00 13,4 5,6 15 8 37 20 SSE 50 0,0
17.06.2018 14:00:00 11,2 7,1 10 5 46 25 S 25 0,0
17.06.2018 13:00:00 14,5 2,7 16 9 35 19 SSE 37 0,0
17.06.2018 12:00:00 15,7 3,5 14 8 32 17 SE 34 0,0
17.06.2018 11:00:00 14,7 3,2 10 6 27 14 SSE 42 0,0
17.06.2018 10:00:00 14,0 4,0 5 3 15 8 NE 40 0,0
17.06.2018 09:00:00 10,9 3,0 9 5 14 8 ENE 43 0,0
17.06.2018 08:00:00 7,7 2,6 5 3 8 5 NE 47 0,0
17.06.2018 07:00:00 5,3 2,8 3 2 6 3 E 44 0,0
17.06.2018 06:00:00 3,1 2,4 1 1 4 2 NW 38 0,0
17.06.2018 05:00:00 0,9 0,6 1 1 6 3 NW 32 0,0
17.06.2018 04:00:00 -1,1 -1,1 5 3 8 4 W 0,3 0,0
17.06.2018 03:00:00 -1,5 -1,6 3 2 8 4 WSW 27 0,0
17.06.2018 02:00:00 -1,5 -1,6 6 3 8 4 WSW 2,9 0,0
17.06.2018 01:00:00 -0,5 -0,9 2 1 10 5 WNW 16 0,0
17.06.2018 00:00:00 1,2 1,1 6 3 8 4 W 20 0,0
16.06.2018 23:00:00 3,1 2,1 5 3 6 4 W 36 0,0
16.06.2018 22:00:00 7,2 3,3 3 1 11 6 WSW 47 0,0
16.06.2018 21:00:00 9,1 2,2 6 3 23 12 WSW 50 0,0
16.06.2018 20:00:00 10,3 1,9 10 6 27 14 WSW 50 0,0
16.06.2018 19:00:00 10,0 3,7 7 4 35 19 W 50 0,0
16.06.2018 18:00:00 9,9 2,7 10 5 33 18 WSW 44 0,0
16.06.2018 17:00:00 11,4 2,4 10 5 37 20 W 50 0,0
16.06.2018 16:00:00 10,8 3,3 13 7 32 17 WSW 50 0,0
16.06.2018 15:00:00 10,7 4,4 14 8 39 21 W 38 0,0
16.06.2018 14:00:00 12,9 3,3 14 7 36 20 WSW 33 0,0
16.06.2018 13:00:00 11,9 2,1 17 9 43 23 SW 40 0,0
16.06.2018 12:00:00 11,7 3,2 11 6 43 23 WSW 42 0,0
16.06.2018 11:00:00 10,6 2,7 16 9 35 19 SW 40 0,0
16.06.2018 10:00:00 8,1 1,9 13 7 36 19 SW 50 0,0
16.06.2018 09:00:00 9,1 3,1 10 5 36 20 WSW 44 0,0
16.06.2018 08:00:00 9,2 3,4 11 6 29 16 SW 41 0,0
16.06.2018 07:00:00 8,3 2,9 13 7 34 19 SW 45 0,0
16.06.2018 06:00:00 7,9 3,2 11 6 28 15 SW 45 0,0
16.06.2018 05:00:00 7,1 4,1 8 4 18 10 SW 46 0,0
16.06.2018 04:00:00 5,8 3,3 7 4 25 14 SSW 50 0,0
16.06.2018 03:00:00 5,5 3,8 6 3 19 10 SSW 50 0,1
16.06.2018 02:00:00 5,5 3,7 7 4 19 11 SSW 50 0,0
16.06.2018 01:00:00 3,4 3,3 4 2 11 6 SW 46 0,0
16.06.2018 00:00:00 3,8 3,7 4 2 9 5 SSW 50 0,0
15.06.2018 23:00:00 3,6 3,3 4 2 11 6 W 50 0,0
15.06.2018 22:00:00 5,8 4,1 8 5 34 18 SW 36 0,3
15.06.2018 21:00:00 8,5 3,9 3 2 8 5 WSW 50 0,0
15.06.2018 20:00:00 8,4 4,8 4 2 48 26 SSE 50 0,0
15.06.2018 19:00:00 9,5 4,9 8 5 35 19 WSW 50 0,0
15.06.2018 18:00:00 7,8 4,9 3 2 10 5 W 50 0,0
15.06.2018 17:00:00 5,5 4,6 7 4 43 23 NE 50 0,9
15.06.2018 16:00:00 8,7 3,3 16 9 49 27 WNW 50 0,0
15.06.2018 15:00:00 9,7 4,9 8 4 27 14 ENE 48 0,0
15.06.2018 14:00:00 9,1 4,3 5 3 17 9 SW 50 0,0
15.06.2018 13:00:00 9,8 5,0 11 6 26 14 SW 50 0,0
15.06.2018 12:00:00 9,4 5,8 8 5 25 13 SSW 50 0,2
15.06.2018 11:00:00 8,8 5,9 8 5 18 10 SSW 29 0,0
15.06.2018 10:00:00 8,0 6,1 3 2 20 11 SSE 50 0,2
15.06.2018 09:00:00 7,6 6,3 10 6 25 14 WSW 14 0,3
15.06.2018 08:00:00 7,2 6,3 3 2 21 11 SW 27 0,3
15.06.2018 07:00:00 7,5 6,3 13 7 43 23 W 17 1,1
15.06.2018 06:00:00 12,1 8,8 14 8 39 21 SSW 29 0,1
15.06.2018 05:00:00 11,3 8,5 16 9 32 17 S 50 0,0
15.06.2018 04:00:00 11,0 8,4 13 7 32 18 S 50 0,0
15.06.2018 03:00:00 10,9 8,8 13 7 39 21 S 50 0,0
15.06.2018 02:00:00 10,4 8,8 8 4 35 19 SSE 50 0,1
15.06.2018 01:00:00 10,4 8,6 20 11 47 25 S 21 0,1
15.06.2018 00:00:00 10,5 8,3 15 8 41 22 S 42 0,0
14.06.2018 23:00:00 10,2 8,5 12 6 38 20 SSE 23 0,0
14.06.2018 22:00:00 10,6 8,4 16 9 46 25 S 50 0,0
14.06.2018 21:00:00 10,7 8,8 13 7 35 19 S 32 0,1
14.06.2018 20:00:00 11,3 9,2 14 8 44 24 SSE 12 0,0
14.06.2018 19:00:00 11,5 8,9 10 5 29 16 SSE 32 0,1
14.06.2018 18:00:00 9,0 8,1 9 5 28 15 ENE 25 0,0
14.06.2018 17:00:00 10,2 8,3 9 5 42 23 SSE 50 0,0
14.06.2018 16:00:00 9,7 8,1 12 6 36 19 SSE 26 0,0
14.06.2018 15:00:00 9,4 7,5 9 5 21 11 ESE 26 1,0
14.06.2018 14:00:00 9,4 8,0 5 3 28 15 SE 14 0,4
14.06.2018 13:00:00 10,2 7,3 12 7 39 21 S 21 0,0
14.06.2018 12:00:00 10,3 6,1 13 7 36 20 SE 50 0,0
14.06.2018 11:00:00 10,4 6,2 18 10 44 24 S 50 0,0
14.06.2018 10:00:00 11,3 5,4 16 9 47 26 S 50 0,0
14.06.2018 09:00:00 11,8 3,3 14 8 37 20 S 50 0,0
14.06.2018 08:00:00 11,0 2,8 15 8 39 21 S 50 0,0
14.06.2018 07:00:00 10,3 2,6 12 6 37 20 S 50 0,0

tt = Température de l'air
td = dewpoint
ff = Vitesse du vent
fx = gusts
dd = Direction du vent
vv = visibility
rr = Quantités de précipitations

stations d'obs. à proximité